Time;durP1;ratioP1;P1;durP2;ratioP2;P2;SDS_P1;SDS_P2;PMS_P1;PMS_P2;Temp;Humidity;BMP_temperature;BMP_pressure;BME280_temperature;BME280_humidity;BME280_pressure;Samples;Min_cycle;Max_cycle;Signal;HPM_P1;HPM_P2
2021/03/23 00:00:28;;;;;;;0.50;0.43;;;22.00;26.60;;;;;;5046161;28;20088;-70
2021/03/23 00:03:03;;;;;;;0.60;0.57;;;22.00;26.60;;;;;;5046484;28;20049;-69
2021/03/23 00:05:30;;;;;;;0.82;0.40;;;22.00;26.60;;;;;;5045467;28;20428;-70
2021/03/23 00:07:56;;;;;;;0.35;0.32;;;22.00;26.60;;;;;;5045883;28;20052;-71
2021/03/23 00:10:31;;;;;;;0.70;0.70;;;22.00;26.60;;;;;;5045625;28;20448;-71
2021/03/23 00:12:58;;;;;;;0.68;0.52;;;22.00;26.60;;;;;;5045691;28;20452;-70
2021/03/23 00:15:24;;;;;;;0.75;0.75;;;21.90;26.60;;;;;;5045951;28;20059;-70
2021/03/23 00:17:51;;;;;;;0.70;0.70;;;21.90;26.60;;;;;;5045605;28;20348;-70
2021/03/23 00:20:23;;;;;;;0.82;0.70;;;21.90;26.60;;;;;;5045550;28;20056;-70
2021/03/23 00:22:50;;;;;;;0.60;0.60;;;21.90;26.60;;;;;;5044788;28;20128;-70
2021/03/23 00:25:16;;;;;;;0.93;0.85;;;21.90;26.60;;;;;;5045720;28;20102;-70
2021/03/23 00:27:43;;;;;;;0.68;0.60;;;21.90;26.60;;;;;;5045188;28;20540;-71
2021/03/23 00:30:12;;;;;;;1.45;0.73;;;21.90;26.60;;;;;;5044539;28;20406;-71
2021/03/23 00:32:38;;;;;;;0.80;0.80;;;21.90;26.70;;;;;;5045313;28;20075;-70
2021/03/23 00:35:07;;;;;;;1.15;1.00;;;21.90;26.70;;;;;;5045542;28;20477;-70
2021/03/23 00:37:35;;;;;;;1.55;0.70;;;21.90;26.70;;;;;;5045063;28;20242;-71
2021/03/23 00:40:07;;;;;;;0.90;0.60;;;21.90;26.70;;;;;;5045283;28;20052;-71
2021/03/23 00:42:34;;;;;;;0.73;0.73;;;21.90;26.70;;;;;;5044882;28;20083;-72
2021/03/23 00:45:04;;;;;;;0.77;0.77;;;21.80;26.70;;;;;;5044815;28;20053;-71
2021/03/23 00:47:30;;;;;;;1.05;0.93;;;21.90;26.70;;;;;;5044603;28;20128;-71
2021/03/23 00:49:57;;;;;;;0.70;0.63;;;21.90;26.70;;;;;;5044353;28;20577;-71
2021/03/23 00:52:24;;;;;;;0.73;0.60;;;21.90;26.70;;;;;;5044880;28;20080;-70
2021/03/23 00:54:51;;;;;;;0.93;0.80;;;21.90;26.70;;;;;;5044538;28;20136;-70
2021/03/23 00:57:19;;;;;;;0.70;0.70;;;21.90;26.70;;;;;;5045011;28;20087;-70
2021/03/23 00:59:45;;;;;;;0.65;0.65;;;21.90;26.70;;;;;;5045061;28;20581;-70
2021/03/23 01:02:12;;;;;;;1.10;0.90;;;21.90;26.70;;;;;;5045130;28;20148;-69
2021/03/23 01:04:39;;;;;;;1.15;0.82;;;21.90;26.70;;;;;;5044821;28;20045;-71
2021/03/23 01:07:10;;;;;;;0.73;0.73;;;21.90;26.70;;;;;;5045272;28;20052;-71
2021/03/23 01:09:37;;;;;;;1.38;0.98;;;21.90;26.70;;;;;;5044719;28;20128;-71
2021/03/23 01:12:05;;;;;;;0.60;0.60;;;21.80;26.70;;;;;;5044631;28;20618;-73
2021/03/23 01:14:32;;;;;;;0.73;0.73;;;21.80;26.70;;;;;;5027312;28;20533;-73
2021/03/23 01:17:01;;;;;;;1.15;1.02;;;21.80;26.70;;;;;;5044985;28;20076;-72
2021/03/23 01:19:28;;;;;;;0.80;0.65;;;21.80;26.70;;;;;;5044332;28;20091;-71
2021/03/23 01:21:55;;;;;;;0.82;0.80;;;21.80;26.70;;;;;;5044672;28;20273;-72
2021/03/23 01:24:34;;;;;;;0.80;0.80;;;21.80;26.70;;;;;;5044794;28;20097;-70
2021/03/23 01:27:01;;;;;;;0.82;0.80;;;21.80;26.80;;;;;;5026448;28;20528;-71
2021/03/23 01:29:28;;;;;;;1.05;0.95;;;21.80;26.70;;;;;;5027379;28;20049;-70
2021/03/23 01:31:55;;;;;;;1.05;0.68;;;21.80;26.80;;;;;;5044747;28;20110;-70
2021/03/23 01:34:43;;;;;;;1.67;0.80;;;21.80;26.80;;;;;;5044179;28;20128;-70
2021/03/23 01:37:10;;;;;;;1.30;1.08;;;21.70;26.70;;;;;;5043707;28;20099;-72
2021/03/23 01:39:37;;;;;;;0.77;0.73;;;21.70;26.80;;;;;;5044602;28;20148;-72
2021/03/23 01:42:05;;;;;;;1.13;1.02;;;21.70;26.70;;;;;;5044211;28;20041;-71
2021/03/23 01:44:32;;;;;;;1.08;0.98;;;21.70;26.70;;;;;;5044726;28;20088;-71
2021/03/23 01:47:00;;;;;;;1.33;1.23;;;21.70;26.70;;;;;;5044176;28;20098;-71
2021/03/23 01:49:40;;;;;;;1.35;1.00;;;21.80;26.80;;;;;;5044872;28;20045;-70
2021/03/23 01:52:11;;;;;;;1.17;1.13;;;21.80;26.80;;;;;;5043849;28;20064;-70
2021/03/23 01:54:48;;;;;;;1.15;1.00;;;21.80;26.80;;;;;;5044342;28;20470;-71
2021/03/23 01:57:16;;;;;;;1.10;1.00;;;21.70;26.70;;;;;;5043907;28;20052;-72
2021/03/23 01:59:47;;;;;;;1.15;0.95;;;21.70;26.80;;;;;;5044799;28;20099;-72
2021/03/23 02:02:14;;;;;;;0.93;0.93;;;21.70;26.80;;;;;;5047053;28;20480;-71
2021/03/23 02:04:42;;;;;;;1.20;1.05;;;21.70;26.80;;;;;;5048436;28;20056;-71
2021/03/23 02:07:09;;;;;;;1.17;1.05;;;21.70;26.80;;;;;;5048186;28;20088;-71
2021/03/23 02:09:37;;;;;;;1.25;0.93;;;21.70;26.80;;;;;;5047255;28;20128;-70
2021/03/23 02:12:08;;;;;;;1.02;0.95;;;21.70;26.80;;;;;;5047568;28;20049;-70
2021/03/23 02:14:47;;;;;;;1.25;0.98;;;21.70;26.80;;;;;;5048317;28;20132;-71
2021/03/23 02:17:28;;;;;;;0.90;0.90;;;21.60;26.80;;;;;;5029768;28;20048;-72
2021/03/23 02:19:58;;;;;;;1.10;1.00;;;21.60;26.80;;;;;;5048314;28;20041;-71
2021/03/23 02:22:31;;;;;;;2.70;1.00;;;21.60;26.80;;;;;;5047920;28;20102;-71
2021/03/23 02:24:59;;;;;;;0.90;0.90;;;21.60;26.80;;;;;;5031185;28;20477;-71
2021/03/23 02:27:27;;;;;;;1.08;1.00;;;21.60;26.80;;;;;;5047269;28;20044;-70
2021/03/23 02:29:57;;;;;;;1.02;1.02;;;21.60;26.80;;;;;;5047918;28;20145;-70
2021/03/23 02:32:23;;;;;;;0.95;0.90;;;21.60;26.80;;;;;;5030988;28;20045;-70
2021/03/23 02:34:50;;;;;;;1.35;1.17;;;21.60;26.80;;;;;;5047352;28;20056;-72
2021/03/23 02:37:18;;;;;;;1.10;1.00;;;21.60;26.80;;;;;;5047882;28;20037;-72
2021/03/23 02:39:45;;;;;;;1.85;1.02;;;21.60;26.80;;;;;;5047540;28;20132;-71
2021/03/23 02:42:12;;;;;;;1.67;1.10;;;21.60;26.80;;;;;;5046648;28;20048;-71
2021/03/23 02:44:47;;;;;;;1.98;0.98;;;21.60;26.80;;;;;;5047382;28;20122;-71
2021/03/23 02:47:17;;;;;;;1.40;1.30;;;21.60;26.80;;;;;;5029701;28;20080;-70
2021/03/23 02:49:45;;;;;;;1.13;1.00;;;21.60;26.80;;;;;;5047613;28;20044;-70
2021/03/23 02:52:12;;;;;;;1.23;1.10;;;21.60;26.80;;;;;;5046792;28;20084;-72
2021/03/23 02:54:40;;;;;;;1.10;1.00;;;21.60;26.90;;;;;;5046776;28;20124;-72
2021/03/23 02:57:07;;;;;;;1.33;1.00;;;21.60;26.90;;;;;;5046730;28;20045;-72
2021/03/23 02:59:34;;;;;;;3.75;1.60;;;21.60;26.90;;;;;;5047322;28;20041;-71
2021/03/23 03:02:03;;;;;;;1.10;1.00;;;21.50;26.80;;;;;;5047185;28;20053;-71
2021/03/23 03:04:31;;;;;;;2.70;1.40;;;21.50;26.90;;;;;;5029216;28;20425;-70
2021/03/23 03:06:58;;;;;;;1.63;1.40;;;21.50;26.90;;;;;;5046634;28;20341;-70
2021/03/23 03:09:25;;;;;;;1.20;1.05;;;21.50;26.90;;;;;;5046479;28;20044;-70
2021/03/23 03:11:53;;;;;;;1.13;1.08;;;21.50;26.90;;;;;;5045334;28;20107;-72
2021/03/23 03:14:20;;;;;;;2.10;1.70;;;21.50;26.90;;;;;;5046184;28;20053;-72
2021/03/23 03:16:47;;;;;;;1.25;1.15;;;21.50;26.90;;;;;;5045530;28;20076;-71
2021/03/23 03:19:15;;;;;;;1.90;1.10;;;21.50;26.90;;;;;;5046077;28;20053;-71
2021/03/23 03:21:42;;;;;;;1.52;1.42;;;21.50;26.90;;;;;;5045892;28;20060;-70
2021/03/23 03:24:09;;;;;;;1.23;1.13;;;21.50;27.00;;;;;;5045314;28;20468;-70
2021/03/23 03:26:36;;;;;;;1.33;1.23;;;21.50;26.90;;;;;;5028233;28;20111;-70
2021/03/23 03:29:03;;;;;;;1.70;1.15;;;21.50;26.90;;;;;;5044382;28;20076;-70
2021/03/23 03:31:31;;;;;;;1.48;1.38;;;21.50;26.90;;;;;;5045398;28;20095;-72
2021/03/23 03:34:00;;;;;;;1.27;1.23;;;21.50;26.90;;;;;;5045741;28;20474;-72
2021/03/23 03:36:29;;;;;;;1.83;1.27;;;21.50;26.90;;;;;;5046214;28;20681;-71
2021/03/23 03:38:57;;;;;;;1.95;1.50;;;21.50;26.90;;;;;;5045414;28;20076;-71
2021/03/23 03:41:24;;;;;;;1.92;1.30;;;21.50;26.90;;;;;;5045176;28;20136;-71
2021/03/23 03:43:52;;;;;;;2.70;1.55;;;21.50;26.90;;;;;;5045856;28;20131;-70
2021/03/23 03:46:19;;;;;;;1.42;1.23;;;21.50;26.90;;;;;;5045710;28;20543;-70
2021/03/23 03:48:46;;;;;;;1.85;1.30;;;21.50;26.90;;;;;;5045241;28;20048;-70
2021/03/23 03:51:13;;;;;;;2.05;1.58;;;21.50;26.90;;;;;;5046092;28;20471;-72
2021/03/23 03:53:39;;;;;;;1.85;1.50;;;21.50;26.90;;;;;;5044694;28;20115;-72
2021/03/23 03:56:06;;;;;;;1.48;1.38;;;21.50;26.90;;;;;;5045335;28;20147;-71
2021/03/23 03:58:32;;;;;;;1.17;1.08;;;21.50;26.90;;;;;;5045090;28;20115;-71
2021/03/23 04:00:59;;;;;;;2.63;1.80;;;21.50;26.90;;;;;;5045288;28;20045;-71
2021/03/23 04:03:28;;;;;;;1.33;1.15;;;21.50;26.90;;;;;;5044988;28;20041;-70
2021/03/23 04:05:59;;;;;;;1.50;1.40;;;21.40;26.90;;;;;;5044793;28;20198;-70
2021/03/23 04:08:29;;;;;;;1.92;1.70;;;21.40;26.90;;;;;;5016129;28;829508;-72
2021/03/23 04:10:59;;;;;;;2.03;1.63;;;21.40;26.90;;;;;;5045617;28;20317;-71
2021/03/23 04:13:25;;;;;;;2.05;1.70;;;21.40;26.90;;;;;;5045009;28;20045;-71
2021/03/23 04:15:53;;;;;;;1.73;1.38;;;21.40;26.90;;;;;;5046156;28;20604;-74
2021/03/23 04:18:23;;;;;;;2.05;1.40;;;21.40;27.00;;;;;;5045210;28;20051;-75
2021/03/23 04:20:52;;;;;;;1.98;1.33;;;21.40;27.00;;;;;;5043977;28;20461;-73
2021/03/23 04:23:32;;;;;;;1.35;1.25;;;21.40;27.00;;;;;;5045093;28;20069;-73
2021/03/23 04:25:59;;;;;;;1.73;1.45;;;21.40;27.00;;;;;;5045020;28;20143;-73
2021/03/23 04:28:26;;;;;;;1.77;1.17;;;21.40;27.00;;;;;;5044808;28;20069;-72
2021/03/23 04:30:53;;;;;;;1.88;1.60;;;21.40;27.00;;;;;;5044798;28;20080;-71
2021/03/23 04:33:22;;;;;;;1.55;1.45;;;21.40;27.00;;;;;;5044814;28;20049;-71
2021/03/23 04:35:53;;;;;;;1.55;1.27;;;21.40;27.00;;;;;;5044959;28;20126;-71
2021/03/23 04:38:25;;;;;;;1.85;1.67;;;21.40;27.00;;;;;;5045082;28;20596;-71
2021/03/23 04:40:53;;;;;;;1.60;1.40;;;21.40;27.00;;;;;;5027432;28;20073;-70
2021/03/23 04:43:27;;;;;;;2.15;1.73;;;21.40;27.00;;;;;;5044635;28;20128;-70
2021/03/23 04:45:54;;;;;;;2.00;1.73;;;21.30;27.00;;;;;;5043889;28;20067;-70
2021/03/23 04:48:21;;;;;;;2.30;1.75;;;21.30;27.00;;;;;;5044281;28;20131;-70
2021/03/23 04:50:48;;;;;;;1.55;1.45;;;21.40;27.00;;;;;;5045163;28;20049;-69
2021/03/23 04:53:22;;;;;;;1.73;1.60;;;21.30;27.00;;;;;;5045171;28;20477;-71
2021/03/23 04:55:50;;;;;;;1.92;1.48;;;21.30;27.00;;;;;;5044487;28;20230;-70
2021/03/23 04:58:17;;;;;;;2.92;2.10;;;21.30;27.00;;;;;;5045191;28;20128;-71
2021/03/23 05:00:44;;;;;;;2.13;1.60;;;21.30;27.00;;;;;;5027212;28;20049;-72
2021/03/23 05:03:14;;;;;;;1.85;1.40;;;21.30;27.00;;;;;;5045391;28;20145;-72
2021/03/23 05:05:41;;;;;;;1.40;1.25;;;21.30;27.00;;;;;;5027091;28;20053;-72
2021/03/23 05:08:08;;;;;;;2.85;1.83;;;21.30;27.00;;;;;;5044654;28;20049;-72
2021/03/23 05:10:35;;;;;;;1.60;1.50;;;21.30;27.00;;;;;;5045092;28;20147;-71
2021/03/23 05:13:03;;;;;;;1.60;1.40;;;21.30;26.90;;;;;;5044476;28;20126;-71
2021/03/23 05:15:30;;;;;;;1.77;1.65;;;21.30;27.00;;;;;;5042850;28;20103;-71
2021/03/23 05:17:57;;;;;;;1.83;1.52;;;21.40;27.00;;;;;;5041302;28;20535;-70
2021/03/23 05:20:23;;;;;;;1.67;1.58;;;21.40;27.00;;;;;;5044349;28;20148;-70
2021/03/23 05:22:50;;;;;;;2.00;1.77;;;21.40;26.90;;;;;;5044878;28;20055;-70
2021/03/23 05:25:17;;;;;;;1.63;1.52;;;21.40;26.90;;;;;;5044718;28;20462;-69
2021/03/23 05:27:44;;;;;;;2.92;1.65;;;21.40;26.90;;;;;;5044753;28;20097;-70
2021/03/23 05:30:12;;;;;;;1.60;1.50;;;21.40;26.90;;;;;;5044680;28;20102;-69
2021/03/23 05:32:38;;;;;;;2.15;1.55;;;21.40;26.90;;;;;;5036825;28;20041;-71
2021/03/23 05:35:07;;;;;;;1.40;1.30;;;21.40;26.90;;;;;;5031804;28;20103;-71
2021/03/23 05:37:45;;;;;;;2.70;1.98;;;21.50;26.90;;;;;;5026693;28;20056;-70
2021/03/23 05:40:20;;;;;;;2.50;2.30;;;21.50;26.90;;;;;;5046249;28;20492;-70
2021/03/23 05:42:56;;;;;;;1.63;1.52;;;21.50;26.90;;;;;;5046817;28;20063;-69
2021/03/23 05:45:36;;;;;;;2.25;1.65;;;21.50;26.90;;;;;;5045635;28;20171;-72
2021/03/23 05:48:20;;;;;;;2.00;1.75;;;21.50;26.90;;;;;;5041356;28;20049;-72
2021/03/23 05:51:10;;;;;;;2.40;2.08;;;21.50;26.80;;;;;;5018765;28;20498;-70
2021/03/23 05:54:13;;;;;;;1.77;1.63;;;21.50;26.80;;;;;;5040514;28;20045;-71
2021/03/23 05:56:41;;;;;;;2.33;1.63;;;21.50;26.80;;;;;;5039394;28;20478;-73
2021/03/23 05:59:16;;;;;;;2.63;1.90;;;21.50;26.80;;;;;;5039260;28;20049;-73
2021/03/23 06:02:01;;;;;;;2.35;1.73;;;21.50;26.80;;;;;;5040838;28;20049;-73
2021/03/23 06:04:43;;;;;;;2.00;1.80;;;21.50;26.80;;;;;;5037186;28;20073;-71
2021/03/23 06:07:15;;;;;;;2.88;2.28;;;21.60;26.80;;;;;;5040146;28;20049;-72
2021/03/23 06:09:43;;;;;;;4.03;2.83;;;21.60;26.70;;;;;;5020988;28;20049;-70
2021/03/23 06:12:40;;;;;;;4.75;3.28;;;21.60;26.70;;;;;;5040266;28;20053;-70
2021/03/23 06:15:27;;;;;;;4.43;2.95;;;21.60;26.60;;;;;;5040096;28;20071;-70
2021/03/23 06:18:18;;;;;;;6.88;4.35;;;21.70;26.50;;;;;;5040637;28;20562;-72
2021/03/23 06:21:03;;;;;;;5.07;3.72;;;21.70;26.40;;;;;;5035886;28;20091;-71
2021/03/23 06:23:50;;;;;;;7.97;4.78;;;21.80;26.40;;;;;;5029920;28;20037;-72
2021/03/23 06:26:56;;;;;;;8.43;5.10;;;21.80;26.30;;;;;;5039467;28;20559;-73
2021/03/23 06:29:51;;;;;;;9.98;5.90;;;21.90;26.40;;;;;;5040653;28;20087;-69
2021/03/23 06:32:44;;;;;;;8.25;5.95;;;21.90;26.30;;;;;;5035582;28;20481;-68
2021/03/23 06:35:16;;;;;;;8.85;6.22;;;22.00;26.30;;;;;;5031996;28;20132;-67
2021/03/23 06:37:43;;;;;;;9.52;6.50;;;22.10;26.20;;;;;;5037890;28;20076;-69
2021/03/23 06:40:19;;;;;;;7.60;5.85;;;22.20;26.20;;;;;;5032111;28;20080;-68
2021/03/23 06:42:50;;;;;;;10.32;6.90;;;22.30;26.20;;;;;;5015594;28;20417;-69
2021/03/23 06:45:32;;;;;;;9.30;6.15;;;22.40;26.10;;;;;;5036167;28;20078;-67
2021/03/23 06:48:21;;;;;;;6.88;5.78;;;22.50;26.00;;;;;;5039021;28;20505;-70
2021/03/23 06:51:04;;;;;;;10.93;7.07;;;22.60;26.00;;;;;;5038570;28;20041;-70
2021/03/23 06:53:31;;;;;;;9.45;6.43;;;22.70;25.90;;;;;;5040978;28;20053;-67
2021/03/23 06:56:25;;;;;;;9.73;6.95;;;22.80;25.80;;;;;;5034020;28;21512;-68
2021/03/23 06:59:16;;;;;;;9.90;7.10;;;22.80;25.70;;;;;;5038653;28;20084;-69
2021/03/23 07:01:46;;;;;;;8.65;6.82;;;22.90;25.60;;;;;;5033190;28;20183;-69
2021/03/23 07:04:29;;;;;;;10.57;6.78;;;23.00;25.60;;;;;;5037061;28;20045;-69
2021/03/23 07:07:14;;;;;;;9.70;7.20;;;23.10;25.60;;;;;;5036355;28;20041;-69
2021/03/23 07:09:56;;;;;;;9.70;6.80;;;23.20;25.70;;;;;;5038495;28;20037;-71
2021/03/23 07:12:42;;;;;;;10.57;7.05;;;23.30;25.60;;;;;;5043154;28;20049;-70
2021/03/23 07:15:16;;;;;;;10.52;7.40;;;23.50;25.50;;;;;;5039209;28;20044;-69
2021/03/23 07:17:45;;;;;;;12.05;7.57;;;23.60;25.40;;;;;;5041219;28;20056;-70
2021/03/23 07:20:41;;;;;;;11.15;6.90;;;23.70;25.40;;;;;;5033826;28;20049;-69
2021/03/23 07:23:31;;;;;;;9.30;6.53;;;23.80;25.40;;;;;;5024718;28;20045;-68
2021/03/23 07:26:32;;;;;;;7.87;6.33;;;23.90;25.30;;;;;;5038078;28;20132;-70
2021/03/23 07:29:33;;;;;;;11.43;7.22;;;24.00;25.30;;;;;;5035423;28;20377;-70
2021/03/23 07:32:28;;;;;;;10.80;6.32;;;24.10;25.20;;;;;;5024442;28;20073;-68
2021/03/23 07:35:19;;;;;;;8.77;5.75;;;24.20;25.20;;;;;;5039043;28;20072;-69
2021/03/23 07:38:26;;;;;;;10.73;6.05;;;24.30;25.10;;;;;;5045174;28;20052;-70
2021/03/23 07:40:53;;;;;;;8.60;5.60;;;24.40;25.10;;;;;;5038024;28;20469;-69
2021/03/23 07:43:38;;;;;;;7.68;5.53;;;24.50;25.00;;;;;;5036401;28;20041;-68
2021/03/23 07:46:37;;;;;;;7.47;5.75;;;24.60;24.90;;;;;;5035833;28;20041;-68
2021/03/23 07:49:35;;;;;;;8.32;6.22;;;24.70;24.90;;;;;;5038067;28;20045;-67
2021/03/23 07:52:27;;;;;;;8.38;6.35;;;24.80;24.80;;;;;;5025485;28;20050;-67
2021/03/23 07:54:59;;;;;;;8.77;6.68;;;24.90;24.80;;;;;;5022095;28;20168;-68
2021/03/23 07:58:06;;;;;;;7.68;6.03;;;25.00;24.70;;;;;;5035385;28;20088;-67
2021/03/23 08:01:01;;;;;;;6.35;5.55;;;25.00;24.70;;;;;;5009143;28;20045;-66
2021/03/23 08:03:55;;;;;;;7.45;5.68;;;25.20;24.70;;;;;;5040614;28;20075;-65
2021/03/23 08:06:57;;;;;;;6.82;5.82;;;25.20;24.70;;;;;;5020714;28;20056;-65
2021/03/23 08:09:56;;;;;;;7.47;5.28;;;25.30;24.70;;;;;;5038508;28;20048;-64
2021/03/23 08:12:54;;;;;;;9.88;5.72;;;25.30;23.10;;;;;;5032188;28;20056;-66
2021/03/23 08:15:45;;;;;;;8.30;6.13;;;25.20;23.50;;;;;;5024485;28;20080;-66
2021/03/23 08:18:45;;;;;;;8.15;5.72;;;25.00;23.90;;;;;;5037113;28;20049;-68
2021/03/23 08:21:42;;;;;;;7.18;5.68;;;25.00;24.10;;;;;;5023861;28;20131;-67
2021/03/23 08:24:31;;;;;;;7.00;5.72;;;25.00;24.30;;;;;;5039976;28;20095;-67
2021/03/23 08:27:21;;;;;;;8.75;5.82;;;25.10;24.40;;;;;;5037546;28;20072;-66
2021/03/23 08:30:12;;;;;;;8.93;6.03;;;25.10;24.50;;;;;;5036318;28;20106;-66
2021/03/23 08:32:54;;;;;;;6.45;5.45;;;25.00;24.40;;;;;;5037424;28;20220;-65
2021/03/23 08:35:51;;;;;;;8.10;5.97;;;25.10;24.50;;;;;;5032832;28;20060;-66
2021/03/23 08:38:41;;;;;;;6.57;5.05;;;25.00;24.40;;;;;;5037561;28;20037;-66
2021/03/23 08:41:36;;;;;;;7.05;5.07;;;25.00;24.40;;;;;;5037350;28;20478;-66
2021/03/23 08:44:05;;;;;;;6.63;5.25;;;25.00;24.50;;;;;;5016566;28;20076;-66
2021/03/23 08:46:35;;;;;;;6.10;4.55;;;25.00;24.50;;;;;;5032751;28;20382;-66
2021/03/23 08:49:16;;;;;;;5.38;4.88;;;25.00;24.50;;;;;;5035320;28;20045;-70
2021/03/23 08:51:47;;;;;;;6.85;4.82;;;25.00;24.50;;;;;;5036103;28;20379;-69
2021/03/23 08:54:45;;;;;;;5.78;5.07;;;25.00;24.50;;;;;;5040222;28;20041;-69
2021/03/23 08:57:13;;;;;;;6.15;4.50;;;25.00;24.50;;;;;;5041104;28;20111;-69
2021/03/23 08:59:41;;;;;;;5.93;4.80;;;25.00;24.50;;;;;;5036720;28;20040;-70
2021/03/23 09:02:37;;;;;;;5.55;4.95;;;25.10;24.60;;;;;;5045276;28;20110;-68
2021/03/23 09:05:26;;;;;;;5.45;4.68;;;25.00;24.60;;;;;;5026986;28;20048;-71
2021/03/23 09:08:31;;;;;;;9.43;4.53;;;25.00;24.60;;;;;;5038495;28;20049;-73
2021/03/23 09:11:04;;;;;;;5.72;4.00;;;25.10;24.90;;;;;;5035261;28;20048;-71
2021/03/23 09:14:13;;;;;;;4.70;3.90;;;25.00;24.90;;;;;;5033301;28;20240;-73
2021/03/23 09:16:51;;;;;;;4.53;3.97;;;25.10;25.00;;;;;;5029725;28;20493;-71
2021/03/23 09:19:39;;;;;;;4.25;3.85;;;25.10;25.10;;;;;;5035622;28;20135;-71
2021/03/23 09:22:14;;;;;;;6.13;4.28;;;25.10;25.20;;;;;;5031336;28;20044;-71
2021/03/23 09:24:43;;;;;;;4.05;3.65;;;25.10;25.30;;;;;;5035773;28;20515;-71
2021/03/23 09:27:31;;;;;;;4.20;3.80;;;25.10;25.20;;;;;;5035650;28;20515;-71
2021/03/23 09:29:58;;;;;;;4.63;3.97;;;25.10;25.80;;;;;;5019892;28;20127;-69
2021/03/23 09:32:28;;;;;;;5.35;3.85;;;25.10;25.20;;;;;;5036392;28;20475;-68
2021/03/23 09:35:13;;;;;;;5.20;3.58;;;25.10;25.10;;;;;;5038474;28;20147;-67
2021/03/23 09:38:20;;;;;;;5.47;3.58;;;25.10;25.10;;;;;;5045521;28;20076;-68
2021/03/23 09:40:55;;;;;;;5.15;3.60;;;25.10;25.00;;;;;;5034231;28;20458;-70
2021/03/23 09:43:26;;;;;;;3.97;3.50;;;25.10;24.90;;;;;;5040881;28;20366;-68
2021/03/23 09:45:56;;;;;;;3.83;3.13;;;25.10;24.90;;;;;;5036431;28;20406;-71
2021/03/23 09:48:43;;;;;;;4.18;3.35;;;25.10;24.80;;;;;;5043760;28;20055;-71
2021/03/23 09:51:40;;;;;;;4.40;3.53;;;25.10;24.80;;;;;;5039115;28;20584;-67
2021/03/23 09:54:21;;;;;;;3.83;3.00;;;25.20;24.90;;;;;;5040002;28;20087;-66
2021/03/23 09:56:49;;;;;;;4.97;3.75;;;25.20;24.70;;;;;;5036201;28;20110;-68
2021/03/23 09:59:22;;;;;;;3.80;3.17;;;25.10;23.00;;;;;;5036231;28;20037;-69
2021/03/23 10:02:21;;;;;;;4.85;3.30;;;25.10;23.70;;;;;;5039210;28;20103;-70
2021/03/23 10:04:49;;;;;;;4.38;2.80;;;25.00;23.80;;;;;;5037704;28;20042;-68
2021/03/23 10:07:35;;;;;;;4.32;2.90;;;25.00;23.90;;;;;;5035953;28;20053;-69
2021/03/23 10:10:26;;;;;;;3.53;2.88;;;25.10;24.10;;;;;;5039519;28;20038;-69
2021/03/23 10:12:55;;;;;;;6.72;2.90;;;25.10;24.10;;;;;;5039776;28;20049;-67
2021/03/23 10:15:33;;;;;;;7.20;3.50;;;25.10;24.10;;;;;;5039502;28;20053;-68
2021/03/23 10:18:35;;;;;;;2.40;2.20;;;25.10;24.10;;;;;;5035568;28;20052;-67
2021/03/23 10:21:14;;;;;;;3.55;2.33;;;25.10;24.10;;;;;;5032586;28;20049;-67
2021/03/23 10:23:52;;;;;;;3.00;2.55;;;25.10;24.20;;;;;;5032635;28;20103;-66
2021/03/23 10:26:20;;;;;;;3.28;2.70;;;25.10;24.20;;;;;;5039871;28;20120;-67
2021/03/23 10:28:49;;;;;;;2.92;2.53;;;25.20;24.20;;;;;;5041277;28;20077;-67
2021/03/23 10:31:35;;;;;;;3.53;2.47;;;25.20;24.10;;;;;;5044841;28;20139;-68
2021/03/23 10:34:21;;;;;;;3.35;2.25;;;25.20;24.10;;;;;;5037463;28;20434;-65
2021/03/23 10:36:55;;;;;;;3.25;2.25;;;25.30;24.20;;;;;;5036120;28;20378;-66
2021/03/23 10:39:36;;;;;;;1.98;1.70;;;25.30;24.10;;;;;;5037765;28;20102;-68
2021/03/23 10:42:24;;;;;;;2.67;2.22;;;25.30;24.10;;;;;;5018782;28;20147;-66
2021/03/23 10:45:23;;;;;;;5.30;2.28;;;25.40;24.10;;;;;;5036759;28;20781;-68
2021/03/23 10:48:12;;;;;;;3.03;2.30;;;25.40;24.20;;;;;;5039466;28;20053;-67
2021/03/23 10:50:40;;;;;;;3.50;1.83;;;25.40;24.20;;;;;;5037887;28;20121;-67
2021/03/23 10:53:20;;;;;;;3.00;2.30;;;25.40;24.10;;;;;;5040245;28;20052;-67
2021/03/23 10:55:50;;;;;;;2.47;2.10;;;25.40;24.00;;;;;;5038122;28;20501;-68
2021/03/23 10:58:21;;;;;;;2.28;2.05;;;25.40;24.00;;;;;;5020268;28;20084;-67
2021/03/23 11:01:08;;;;;;;2.03;1.58;;;25.40;24.00;;;;;;5037805;28;20095;-67
2021/03/23 11:03:36;;;;;;;2.47;2.28;;;25.50;24.00;;;;;;5036493;28;20072;-66
2021/03/23 11:06:05;;;;;;;3.33;2.42;;;25.50;24.10;;;;;;5032369;28;20104;-66
2021/03/23 11:08:36;;;;;;;3.80;2.17;;;25.50;24.10;;;;;;5034915;28;20055;-68
2021/03/23 11:11:03;;;;;;;2.28;2.03;;;25.60;24.10;;;;;;5036361;28;20053;-68
2021/03/23 11:13:29;;;;;;;2.75;2.22;;;25.60;24.10;;;;;;5019677;28;20787;-68
2021/03/23 11:15:59;;;;;;;2.30;2.10;;;25.70;24.10;;;;;;5036751;28;20065;-67
2021/03/23 11:18:30;;;;;;;2.60;2.17;;;25.70;24.10;;;;;;5039369;28;20054;-67
2021/03/23 11:21:00;;;;;;;3.55;2.45;;;25.70;24.10;;;;;;5037799;28;20076;-67
2021/03/23 11:23:44;;;;;;;2.25;2.00;;;25.70;24.10;;;;;;5039711;28;20045;-68
2021/03/23 11:26:21;;;;;;;2.78;2.33;;;25.70;24.00;;;;;;5035089;28;20459;-68
2021/03/23 11:29:05;;;;;;;2.13;1.90;;;25.80;24.00;;;;;;5034759;28;20073;-70
2021/03/23 11:31:34;;;;;;;1.90;1.77;;;25.80;24.00;;;;;;5035346;28;20137;-69
2021/03/23 11:34:04;;;;;;;3.67;2.50;;;25.90;24.00;;;;;;5038658;28;20134;-68
2021/03/23 11:36:31;;;;;;;6.83;2.47;;;25.90;22.60;;;;;;5037544;28;20053;-69
2021/03/23 11:39:00;;;;;;;2.22;1.70;;;25.70;21.80;;;;;;5040106;28;20729;-66
2021/03/23 11:41:36;;;;;;;3.30;2.33;;;25.60;22.30;;;;;;5038037;28;20053;-69
2021/03/23 11:44:16;;;;;;;8.65;1.90;;;25.60;22.80;;;;;;5016807;28;20045;-66
2021/03/23 11:47:09;;;;;;;1.88;1.40;;;25.60;23.10;;;;;;5036874;28;20478;-65
2021/03/23 11:50:01;;;;;;;2.40;1.70;;;25.60;23.20;;;;;;5032386;28;20045;-65
2021/03/23 11:52:27;;;;;;;2.13;1.35;;;25.70;23.30;;;;;;5038905;28;20124;-69
2021/03/23 11:54:55;;;;;;;2.33;1.60;;;25.70;23.40;;;;;;5041811;28;20103;-71
2021/03/23 11:57:23;;;;;;;1.70;1.60;;;25.70;23.40;;;;;;5031303;28;20049;-71
2021/03/23 11:59:51;;;;;;;1.55;1.33;;;25.70;23.40;;;;;;5035818;28;20053;-70
2021/03/23 12:02:18;;;;;;;1.98;1.55;;;25.70;23.50;;;;;;5033689;28;20089;-70
2021/03/23 12:04:45;;;;;;;1.77;1.40;;;25.70;23.50;;;;;;5038451;28;20099;-71
2021/03/23 12:07:39;;;;;;;1.77;1.60;;;25.80;23.50;;;;;;5037458;28;20084;-71
2021/03/23 12:10:45;;;;;;;1.88;1.25;;;25.80;23.50;;;;;;5035283;28;20352;-70
2021/03/23 12:13:32;;;;;;;2.60;1.55;;;25.80;23.40;;;;;;5031493;28;20552;-69
2021/03/23 12:16:36;;;;;;;1.33;1.23;;;25.80;23.40;;;;;;5038591;28;20085;-69
2021/03/23 12:19:20;;;;;;;1.75;1.27;;;25.90;23.40;;;;;;5021328;28;20269;-69
2021/03/23 12:21:47;;;;;;;1.55;1.45;;;25.80;23.30;;;;;;5012492;28;20053;-70
2021/03/23 12:24:14;;;;;;;1.35;1.20;;;25.90;23.30;;;;;;5034809;28;21854;-69
2021/03/23 12:26:41;;;;;;;1.45;1.20;;;25.90;23.30;;;;;;5037613;28;20128;-70
2021/03/23 12:29:08;;;;;;;1.77;1.60;;;25.90;23.30;;;;;;5039307;28;20049;-70
2021/03/23 12:31:35;;;;;;;2.20;1.25;;;25.90;23.30;;;;;;5037305;28;20056;-68
2021/03/23 12:34:02;;;;;;;3.13;1.15;;;25.80;23.20;;;;;;5013883;28;20375;-68
2021/03/23 12:36:29;;;;;;;3.30;1.48;;;25.80;23.20;;;;;;5037902;28;20885;-71
2021/03/23 12:38:56;;;;;;;2.17;1.10;;;25.80;23.20;;;;;;5020923;28;20049;-70
2021/03/23 12:41:29;;;;;;;1.58;1.20;;;25.80;23.20;;;;;;5037164;28;20132;-69
2021/03/23 12:43:56;;;;;;;1.48;1.30;;;25.80;23.30;;;;;;5037070;28;20049;-67
2021/03/23 12:46:26;;;;;;;2.15;1.23;;;25.80;23.30;;;;;;5036742;28;20496;-67
2021/03/23 12:48:53;;;;;;;1.73;1.20;;;25.70;23.20;;;;;;5034497;28;20059;-67
2021/03/23 12:51:38;;;;;;;2.22;1.25;;;25.70;23.30;;;;;;5037297;28;20053;-68
2021/03/23 12:54:12;;;;;;;4.45;1.10;;;25.70;23.30;;;;;;5030593;28;20045;-69
2021/03/23 12:56:38;;;;;;;1.40;1.27;;;25.70;23.40;;;;;;5032491;28;20465;-69
2021/03/23 12:59:05;;;;;;;1.20;1.10;;;25.70;23.40;;;;;;5039626;28;20157;-68
2021/03/23 13:01:31;;;;;;;2.50;1.20;;;25.70;23.40;;;;;;5038745;28;20052;-68
2021/03/23 13:03:58;;;;;;;1.40;1.25;;;25.70;23.40;;;;;;5030906;28;20049;-70
2021/03/23 13:06:28;;;;;;;1.88;1.20;;;25.70;23.40;;;;;;5037306;28;20059;-70
2021/03/23 13:08:55;;;;;;;1.63;1.45;;;25.70;23.90;;;;;;5036161;28;20156;-70
2021/03/23 13:11:26;;;;;;;0.80;0.80;;;25.70;23.50;;;;;;5034435;28;20076;-68
2021/03/23 13:13:59;;;;;;;2.53;1.02;;;25.70;23.50;;;;;;5030495;28;20085;-70
2021/03/23 13:16:28;;;;;;;2.03;1.52;;;25.70;23.40;;;;;;5031434;28;20140;-72
2021/03/23 13:18:55;;;;;;;3.78;1.45;;;25.70;23.40;;;;;;5028103;28;20160;-72
2021/03/23 13:21:35;;;;;;;1.45;1.13;;;25.60;23.40;;;;;;5014636;28;20409;-71
2021/03/23 13:24:12;;;;;;;1.40;0.95;;;25.60;23.50;;;;;;5030292;28;20045;-70
2021/03/23 13:26:39;;;;;;;2.80;1.00;;;25.60;23.50;;;;;;5032275;28;20501;-71